ADDS METAR Data INFO
IDs: Format: Raw Decoded Include TAF

Data at: 1847 UTC 17 Oct 2017

KMSL 171753Z AUTO VRB05KT 10SM CLR 19/06 A3031 RMK AO2 SLP262 T01940056 10200 20056 58021
KMSL 171653Z AUTO 10SM CLR 18/06 A3034 RMK AO2 SLP270 T01830061
KMSL 171553Z AUTO 12006KT 10SM CLR 17/06 A3036 RMK AO2 SLP280 T01670056
KMSL 171453Z AUTO VRB04KT 10SM CLR 15/07 A3038 RMK AO2 SLP284 T01500067 51014
KMSL 171353Z AUTO 08003KT 10SM CLR 12/07 A3037 RMK AO2 SLP281 T01170067
KMSL 171253Z AUTO 00000KT 10SM CLR 08/06 A3035 RMK AO2 SLP276 T00830061
KMSL 171153Z AUTO 00000KT 10SM CLR 06/04 A3033 RMK AO2 SLP271 T00610039 10117 20056 53015
KMSL 171053Z AUTO 00000KT 10SM CLR 06/04 A3031 RMK AO2 SLP263 T00610039
KMSL 170953Z AUTO 00000KT 10SM CLR 07/04 A3031 RMK AO2 SLP261 T00670044
KMSL 170853Z AUTO 05005KT 10SM CLR 10/06 A3029 RMK AO2 SLP255 T01000056 56001
KMSL 170753Z AUTO 05007KT 10SM CLR 10/06 A3029 RMK AO2 SLP255 T01000061
KMSL 170653Z AUTO 02006KT 10SM CLR 11/06 A3029 RMK AO2 SLP254 T01110061
KMSL 170553Z AUTO 03004KT 10SM CLR 11/06 A3029 RMK AO2 SLP256 T01110061 10156 20111 402060094 58001
KMSL 170453Z AUTO 05006KT 10SM CLR 12/06 A3030 RMK AO2 SLP257 T01170061
KMSL 170353Z AUTO 04006KT 10SM CLR 13/06 A3030 RMK AO2 SLP258 T01280061
KMSL 170253Z AUTO 02005KT 10SM CLR 13/06 A3030 RMK AO2 SLP258 T01330061 51014
KMSL 170153Z AUTO 02006KT 10SM CLR 14/06 A3029 RMK AO2 SLP255 T01440056
KMSL 170053Z AUTO 01006KT 10SM CLR 14/06 A3028 RMK AO2 SLP251 T01440061
KMSL 162353Z AUTO 36004KT 10SM CLR 16/06 A3026 RMK AO2 SLP244 T01560056 10206 20156 53007
KMSL 162253Z AUTO 02008G15KT 10SM CLR 18/05 A3024 RMK AO2 SLP238 T01780050
KMSL 162153Z AUTO 01011KT 10SM CLR 19/04 A3024 RMK AO2 SLP236 T01890044
KMSL 162053Z AUTO 02011G16KT 10SM CLR 21/05 A3023 RMK AO2 SLP235 T02060050 56020
KMSL 161953Z AUTO 36006KT 10SM CLR 20/06 A3024 RMK AO2 SLP238 T02000056
KMSL 161853Z AUTO 01008KT 340V050 10SM CLR 19/06 A3026 RMK AO2 SLP245 T01940056
KMSL 161753Z AUTO 36007G15KT 10SM CLR 18/06 A3029 RMK AO2 SLP256 T01830056 10189 20094 58006
KMSL 161653Z AUTO 02013G17KT 10SM CLR 18/07 A3031 RMK AO2 SLP261 T01780067
KMSL 161553Z AUTO 04011G16KT 10SM CLR 16/07 A3031 RMK AO2 SLP262 T01560067
KMSL 161453Z AUTO 04012G18KT 10SM CLR 14/07 A3031 RMK AO2 SLP262 T01390067 51013
KMSL 161353Z AUTO 01008KT 10SM CLR 12/07 A3031 RMK AO2 SLP260 T01220067
KMSL 161253Z AUTO VRB06KT 10SM CLR 11/07 A3029 RMK AO2 SLP256 T01060067
KMSL 161153Z AUTO 01005KT 10SM CLR 10/07 A3027 RMK AO2 SLP249 70023 T01000067 10128 20094 53015
KMSL 161053Z AUTO 36005KT 10SM SCT024 11/07 A3026 RMK AO2 SLP242 T01060067
KMSL 161017Z AUTO 36006KT 10SM BKN024 11/07 A3025 RMK AO2 T01060072
KMSL 160953Z AUTO 35006KT 10SM SCT020 11/07 A3024 RMK AO2 SLP237 T01060072
KMSL 160927Z AUTO 02008G16KT 10SM BKN018 11/07 A3024 RMK AO2 T01060072
KMSL 160853Z AUTO 02008G15KT 10SM CLR 11/07 A3023 RMK AO2 SLP232 T01110072 57004
KMSL 160753Z AUTO 01007KT 330V040 10SM CLR 12/08 A3024 RMK AO2 SLP234 T01170078
KMSL 160653Z AUTO 01006G17KT 10SM CLR 12/08 A3023 RMK AO2 SLP233 T01220083